Big Bear Station Historical Data
Daily Summary for July 17, 2019 Units:  English    Metric   Both
Next Day »
Daily Weekly Monthly Yearly Custom
  High: Low: Average:
Temperature: 82.6 °F 48 °F 63.2 °F
Dew Point: 54 °F 19.8 °F 34.5 °F
Humidity: 56% 16% 36%
Wind Speed: 8.3mph 0mph 0.5mph
Wind Gust: -999mph - -
Wind- - WSW
Pressure: 23.60 in 23.51 in -
Precipitation: 0 in    
Historical Graphs
 
 
Tabular Data for July 17, 2019
Time Temperature Dew Point Pressure Wind Wind Speed Wind Gust Humidity Rainfall Rate (Hourly)
00:08 50.9 °F 26.2 °F 23.55 in Calm   -999 mph 38% 0.00 in
00:23 50.5 °F 23.8 °F 23.54 in Calm   -999 mph 35% 0.00 in
00:38 50 °F 22 °F 23.54 in Calm   -999 mph 33% 0.00 in
00:54 49.8 °F 21.1 °F 23.54 in Calm   -999 mph 32% 0.00 in
01:09 49.6 °F 22.4 °F 23.54 in Calm   -999 mph 34% 0.00 in
01:24 49.5 °F 21.6 °F 23.54 in Calm   -999 mph 33% 0.00 in
01:39 49.1 °F 28.1 °F 23.53 in Calm   -999 mph 44% 0.00 in
01:54 48.9 °F 31.1 °F 23.52 in Calm   -999 mph 50% 0.00 in
02:10 48.4 °F 32 °F 23.52 in Calm   -999 mph 53% 0.00 in
02:25 48 °F 33 °F 23.51 in Calm   -999 mph 56% 0.00 in
02:40 48.4 °F 25.8 °F 23.51 in Calm   -999 mph 41% 0.00 in
02:55 48.7 °F 29.4 °F 23.51 in Calm   -999 mph 47% 0.00 in
03:10 49.3 °F 29.9 °F 23.51 in Calm   -999 mph 47% 0.00 in
03:26 50.2 °F 25.6 °F 23.51 in Calm   -999 mph 38% 0.00 in
03:41 51.1 °F 23.7 °F 23.51 in Calm   -999 mph 34% 0.00 in
03:56 51.4 °F 26.6 °F 23.51 in Calm   -999 mph 38% 0.00 in
04:11 51.3 °F 25.9 °F 23.51 in Calm   -999 mph 37% 0.00 in
04:26 51.1 °F 25.7 °F 23.51 in Calm   -999 mph 37% 0.00 in
04:42 50.5 °F 25.2 °F 23.51 in Calm   -999 mph 37% 0.00 in
04:57 50.5 °F 21 °F 23.51 in Calm   -999 mph 31% 0.00 in
05:12 50.7 °F 23.3 °F 23.52 in Calm   -999 mph 34% 0.00 in
05:27 50.2 °F 23.6 °F 23.53 in Calm   -999 mph 35% 0.00 in
05:42 50.4 °F 20.1 °F 23.53 in Calm   -999 mph 30% 0.00 in
05:58 50 °F 19.8 °F 23.54 in Calm   -999 mph 30% 0.00 in
06:13 49.8 °F 23.9 °F 23.54 in Calm   -999 mph 36% 0.00 in
06:28 49.3 °F 28.3 °F 23.54 in Calm   -999 mph 44% 0.00 in
06:43 49.3 °F 32.4 °F 23.54 in Calm   -999 mph 52% 0.00 in
06:59 50 °F 30.6 °F 23.55 in Calm   -999 mph 47% 0.00 in
07:14 50.5 °F 30.5 °F 23.55 in Calm   -999 mph 46% 0.00 in
07:29 52.5 °F 34.9 °F 23.56 in Calm   -999 mph 51% 0.00 in
07:44 53.6 °F 37.4 °F 23.56 in Calm   -999 mph 54% 0.00 in
07:59 55.9 °F 36 °F 23.56 in Calm   -999 mph 47% 0.00 in
08:15 57.9 °F 31.8 °F 23.56 in Calm   -999 mph 37% 0.00 in
08:30 60.4 °F 31.9 °F 23.56 in Calm   -999 mph 34% 0.00 in
08:45 63.1 °F 30.3 °F 23.57 in Calm   -999 mph 29% 0.00 in
09:00 64.9 °F 31 °F 23.57 in Calm   -999 mph 28% 0.00 in
10:01 70.3 °F 31.8 °F 23.57 in Calm   -999 mph 24% 0.00 in
10:16 71.1 °F 33.5 °F 23.58 in Calm   -999 mph 25% 0.00 in
10:31 71.6 °F 32.9 °F 23.59 in Calm   -999 mph 24% 0.00 in
10:47 72 °F 33.2 °F 23.59 in Calm   -999 mph 24% 0.00 in
11:02 73.2 °F 35.3 °F 23.59 in Calm   -999 mph 25% 0.00 in
11:17 74.3 °F 30.6 °F 23.59 in Calm   -999 mph 20% 0.00 in
11:32 75.2 °F 31.4 °F 23.59 in South 3.7 mph -999 mph 20% 0.00 in
11:48 77.5 °F 27.8 °F 23.59 in Calm   -999 mph 16% 0.00 in
12:03 77.2 °F 29 °F 23.59 in Calm   -999 mph 17% 0.00 in
12:18 79.7 °F 31 °F 23.60 in NW 6.8 mph -999 mph 17% 0.00 in
12:33 80.1 °F 29.9 °F 23.60 in Calm   -999 mph 16% 0.00 in
12:48 81.1 °F 33.6 °F 23.60 in South 2.2 mph -999 mph 18% 0.00 in
13:04 81.5 °F 37.8 °F 23.60 in Calm   -999 mph 21% 0.00 in
13:19 82.6 °F 37.5 °F 23.59 in Calm   -999 mph 20% 0.00 in
13:34 81 °F 36.2 °F 23.60 in Calm   -999 mph 20% 0.00 in
13:49 80.2 °F 35.5 °F 23.60 in Calm   -999 mph 20% 0.00 in
14:04 80.8 °F 38.4 °F 23.60 in Calm   -999 mph 22% 0.00 in
14:20 80.4 °F 38.1 °F 23.60 in Calm   -999 mph 22% 0.00 in
14:35 80.1 °F 40.1 °F 23.60 in Calm   -999 mph 24% 0.00 in
14:50 81.5 °F 39 °F 23.60 in Calm   -999 mph 22% 0.00 in
15:05 79.5 °F 37.3 °F 23.60 in ESE 4.7 mph -999 mph 22% 0.00 in
15:20 77.7 °F 37 °F 23.60 in South 8.3 mph -999 mph 23% 0.00 in
15:36 77.5 °F 40.9 °F 23.60 in SSW 2.2 mph -999 mph 27% 0.00 in
15:51 78.1 °F 43.3 °F 23.60 in South 1.1 mph -999 mph 29% 0.00 in
16:06 76.5 °F 45.3 °F 23.59 in West 3.7 mph -999 mph 33% 0.00 in
16:21 77.5 °F 46.9 °F 23.59 in NNW 1.1 mph -999 mph 34% 0.00 in
16:37 77.2 °F 48.2 °F 23.59 in North 1.7 mph -999 mph 36% 0.00 in
16:52 77.4 °F 49.1 °F 23.59 in West 1.1 mph -999 mph 37% 0.00 in
17:07 79.5 °F 51 °F 23.59 in Calm   -999 mph 37% 0.00 in
17:22 79.7 °F 51.1 °F 23.58 in SSW 1.1 mph -999 mph 37% 0.00 in
17:37 77.5 °F 51.3 °F 23.58 in Calm   -999 mph 40% 0.00 in
17:53 76.6 °F 51.1 °F 23.58 in WNW 2.7 mph -999 mph 41% 0.00 in
18:08 77 °F 50.8 °F 23.58 in South 1.1 mph -999 mph 40% 0.00 in
18:23 75.4 °F 53.8 °F 23.58 in NNW 2.2 mph -999 mph 47% 0.00 in
18:38 73.8 °F 54 °F 23.58 in SE 1.1 mph -999 mph 50% 0.00 in
18:54 73.2 °F 53.5 °F 23.58 in WNW 5.3 mph -999 mph 50% 0.00 in
19:09 73 °F 50.4 °F 23.58 in Calm   -999 mph 45% 0.00 in
19:24 69.3 °F 46.5 °F 23.57 in Calm   -999 mph 44% 0.00 in
19:40 66.9 °F 38.4 °F 23.57 in Calm   -999 mph 35% 0.00 in
19:55 65.5 °F 38.5 °F 23.57 in Calm   -999 mph 37% 0.00 in
20:10 63.5 °F 43.5 °F 23.58 in Calm   -999 mph 48% 0.00 in
20:25 61.9 °F 43.1 °F 23.58 in Calm   -999 mph 50% 0.00 in
20:41 60.4 °F 41.7 °F 23.59 in Calm   -999 mph 50% 0.00 in
20:56 59.4 °F 37.5 °F 23.59 in Calm   -999 mph 44% 0.00 in
21:11 57.6 °F 36.4 °F 23.59 in Calm   -999 mph 45% 0.00 in
21:26 57.6 °F 33.4 °F 23.59 in Calm   -999 mph 40% 0.00 in
21:42 56.7 °F 32.6 °F 23.59 in Calm   -999 mph 40% 0.00 in
21:57 57 °F 34.1 °F 23.60 in Calm   -999 mph 42% 0.00 in
22:12 56.3 °F 36.3 °F 23.60 in Calm   -999 mph 47% 0.00 in
22:27 54.7 °F 32.6 °F 23.60 in Calm   -999 mph 43% 0.00 in
22:42 54.5 °F 31.9 °F 23.60 in Calm   -999 mph 42% 0.00 in
22:58 53.8 °F 30.6 °F 23.60 in Calm   -999 mph 41% 0.00 in
23:13 53.2 °F 32.9 °F 23.60 in Calm   -999 mph 46% 0.00 in
23:28 52.5 °F 31.8 °F 23.60 in Calm   -999 mph 45% 0.00 in
23:43 52.3 °F 32.7 °F 23.60 in Calm   -999 mph 47% 0.00 in
23:58 51.3 °F 33.8 °F 23.60 in Calm   -999 mph 51% 0.00 in
Big Bear CA Weather